Time;durP1;ratioP1;P1;durP2;ratioP2;P2;SDS_P1;SDS_P2;PMS_P1;PMS_P2;Temp;Humidity;BMP_temperature;BMP_pressure;BME280_temperature;BME280_humidity;BME280_pressure;Samples;Min_cycle;Max_cycle;Signal;HPM_P1;HPM_P2
2023/09/13 00:01:32;;;;;;;31.13;23.60;;;19.00;99.90;;;;;;5055928;28;20055;-73
2023/09/13 00:03:58;;;;;;;33.72;22.83;;;19.00;99.90;;;;;;5055926;28;20379;-74
2023/09/13 00:06:24;;;;;;;26.85;21.10;;;19.00;99.90;;;;;;5056627;28;20083;-74
2023/09/13 00:08:50;;;;;;;31.65;22.77;;;19.00;99.90;;;;;;5056424;28;20392;-74
2023/09/13 00:11:15;;;;;;;29.48;21.27;;;19.00;99.90;;;;;;5056252;28;20036;-74
2023/09/13 00:13:41;;;;;;;29.90;21.17;;;19.00;99.90;;;;;;5055705;28;20052;-74
2023/09/13 00:16:07;;;;;;;30.20;20.25;;;18.90;99.90;;;;;;5056265;28;20032;-74
2023/09/13 00:18:33;;;;;;;27.05;20.20;;;18.90;99.90;;;;;;5056060;28;20490;-74
2023/09/13 00:20:58;;;;;;;36.67;22.63;;;18.90;99.90;;;;;;5055748;28;20029;-74
2023/09/13 00:23:24;;;;;;;29.23;21.35;;;18.80;99.90;;;;;;5056009;28;20032;-74
2023/09/13 00:25:50;;;;;;;27.77;21.38;;;18.80;99.90;;;;;;5054706;28;20025;-74
2023/09/13 00:28:16;;;;;;;29.13;21.23;;;18.80;99.90;;;;;;5055680;28;20033;-74
2023/09/13 00:30:42;;;;;;;30.52;22.40;;;18.80;99.90;;;;;;5056170;28;20493;-74
2023/09/13 00:33:07;;;;;;;31.60;22.02;;;18.80;99.90;;;;;;5056116;28;20032;-74
2023/09/13 00:35:33;;;;;;;29.83;21.55;;;18.90;99.90;;;;;;5055091;28;20029;-74
2023/09/13 00:37:59;;;;;;;33.67;23.25;;;18.90;99.90;;;;;;5055995;28;20029;-74
2023/09/13 00:40:24;;;;;;;31.95;22.88;;;18.90;99.90;;;;;;5055709;28;20083;-74
2023/09/13 00:42:50;;;;;;;33.80;24.55;;;18.90;99.90;;;;;;5055367;28;20021;-73
2023/09/13 00:45:15;;;;;;;36.22;23.27;;;18.90;99.90;;;;;;5055620;28;20410;-74
2023/09/13 00:47:43;;;;;;;32.47;22.52;;;18.90;99.90;;;;;;5055405;28;20079;-73
2023/09/13 00:50:12;;;;;;;31.17;22.15;;;18.70;99.90;;;;;;5055576;28;20025;-74
2023/09/13 00:52:39;;;;;;;31.30;22.30;;;18.90;99.90;;;;;;5055788;28;20138;-74
2023/09/13 00:55:06;;;;;;;29.33;21.13;;;18.90;99.90;;;;;;5055355;28;20467;-75
2023/09/13 00:57:34;;;;;;;39.60;26.80;;;18.90;99.90;;;;;;5055553;28;20021;-74
2023/09/13 01:00:00;;;;;;;45.50;29.58;;;18.90;99.90;;;;;;5054889;28;20021;-74
2023/09/13 01:02:26;;;;;;;41.42;29.63;;;18.90;99.90;;;;;;5055528;28;20475;-74
2023/09/13 01:04:52;;;;;;;40.95;27.88;;;18.90;99.90;;;;;;5055221;28;20031;-74
2023/09/13 01:07:19;;;;;;;43.53;27.38;;;18.90;99.90;;;;;;5055212;28;20029;-73
2023/09/13 01:09:44;;;;;;;34.75;24.42;;;18.90;99.90;;;;;;5055457;28;20033;-74
2023/09/13 01:12:10;;;;;;;46.28;28.17;;;19.00;99.90;;;;;;5055369;28;20074;-74
2023/09/13 01:14:35;;;;;;;47.58;30.52;;;18.80;99.90;;;;;;5054251;28;20483;-74
2023/09/13 01:17:15;;;;;;;48.42;30.98;;;18.80;99.90;;;;;;5054436;28;20033;-74
2023/09/13 01:19:45;;;;;;;40.22;28.17;;;18.80;99.90;;;;;;5055242;28;20028;-74
2023/09/13 01:22:43;;;;;;;42.58;29.45;;;18.80;99.90;;;;;;5054670;28;20443;-73
2023/09/13 01:25:49;;;;;;;43.35;28.90;;;18.80;99.90;;;;;;5054385;28;20506;-74
2023/09/13 01:28:36;;;;;;;35.42;25.35;;;18.80;99.90;;;;;;5054415;28;20101;-74
2023/09/13 01:31:05;;;;;;;42.85;26.65;;;18.70;99.90;;;;;;5054205;28;20467;-73
2023/09/13 01:33:31;;;;;;;37.70;26.75;;;18.80;99.90;;;;;;5054984;28;20048;-74
2023/09/13 01:35:56;;;;;;;36.67;25.42;;;18.80;99.90;;;;;;5053870;28;20463;-74
2023/09/13 01:38:22;;;;;;;41.33;26.25;;;18.80;99.90;;;;;;5054477;28;20456;-74
2023/09/13 01:40:49;;;;;;;41.17;28.05;;;18.80;99.90;;;;;;5054089;28;20056;-74
2023/09/13 01:43:15;;;;;;;48.03;31.83;;;18.80;99.90;;;;;;5054299;28;20091;-74
2023/09/13 01:45:42;;;;;;;46.67;31.63;;;18.80;99.90;;;;;;5054289;28;20033;-74
2023/09/13 01:48:09;;;;;;;48.22;33.95;;;18.80;99.90;;;;;;5054619;28;20032;-74
2023/09/13 01:50:36;;;;;;;44.45;31.88;;;18.80;99.90;;;;;;5054502;28;20471;-74
2023/09/13 01:53:03;;;;;;;50.92;31.92;;;18.80;99.90;;;;;;5054626;28;20467;-73
2023/09/13 01:55:32;;;;;;;55.78;36.72;;;18.80;99.90;;;;;;5054014;28;20029;-74
2023/09/13 01:57:58;;;;;;;55.67;36.42;;;18.80;99.90;;;;;;5054288;28;20025;-74
2023/09/13 02:00:23;;;;;;;52.72;35.08;;;18.80;99.90;;;;;;5053954;28;20025;-73
2023/09/13 02:02:49;;;;;;;51.08;34.85;;;18.70;99.90;;;;;;5054466;28;20028;-73
2023/09/13 02:05:15;;;;;;;50.00;34.47;;;18.80;99.90;;;;;;5053646;28;20498;-74
2023/09/13 02:07:40;;;;;;;46.97;32.53;;;18.70;99.90;;;;;;5054329;28;20367;-74
2023/09/13 02:10:06;;;;;;;45.10;31.25;;;18.80;99.90;;;;;;5053908;28;20025;-74
2023/09/13 02:12:32;;;;;;;38.92;26.88;;;18.80;99.90;;;;;;5054333;28;20504;-74
2023/09/13 02:14:58;;;;;;;34.28;23.20;;;18.60;99.90;;;;;;5053260;28;20060;-74
2023/09/13 02:17:23;;;;;;;26.45;20.38;;;18.50;99.90;;;;;;5053673;28;20028;-74
2023/09/13 02:19:50;;;;;;;26.65;16.77;;;18.50;99.90;;;;;;5054253;28;20037;-73
2023/09/13 02:22:16;;;;;;;24.23;17.77;;;18.40;99.90;;;;;;5053639;28;20032;-74
2023/09/13 02:24:42;;;;;;;20.80;17.25;;;18.40;99.90;;;;;;5053920;28;20037;-74
2023/09/13 02:27:08;;;;;;;27.35;17.70;;;18.40;99.90;;;;;;5053933;28;20039;-74
2023/09/13 02:29:33;;;;;;;24.80;17.48;;;18.30;99.90;;;;;;5054168;28;20364;-74
2023/09/13 02:31:59;;;;;;;32.75;18.95;;;18.40;99.90;;;;;;5053816;28;20044;-74
2023/09/13 02:34:25;;;;;;;25.25;18.00;;;18.40;99.90;;;;;;5053556;28;20037;-74
2023/09/13 02:36:50;;;;;;;25.75;17.60;;;18.30;99.90;;;;;;5053049;28;20032;-73
2023/09/13 02:39:33;;;;;;;29.05;17.80;;;18.40;99.90;;;;;;5053456;28;20059;-73
2023/09/13 02:41:59;;;;;;;28.02;18.08;;;18.40;99.90;;;;;;5054614;28;20025;-72
2023/09/13 02:44:25;;;;;;;26.88;17.98;;;18.30;99.90;;;;;;5052873;28;20028;-73
2023/09/13 02:46:51;;;;;;;27.88;18.55;;;18.30;99.90;;;;;;5054063;28;20032;-73
2023/09/13 02:49:16;;;;;;;27.50;18.42;;;18.30;99.90;;;;;;5057034;28;20033;-73
2023/09/13 02:51:42;;;;;;;30.40;19.02;;;18.30;99.90;;;;;;5057644;28;20040;-75
2023/09/13 02:54:07;;;;;;;25.95;18.80;;;18.30;99.90;;;;;;5057445;28;20475;-73
2023/09/13 02:56:33;;;;;;;41.35;26.52;;;18.20;99.90;;;;;;5057398;28;20067;-74
2023/09/13 02:58:59;;;;;;;36.35;23.50;;;18.20;99.90;;;;;;5057427;28;20032;-74
2023/09/13 03:01:24;;;;;;;33.78;21.73;;;18.20;99.90;;;;;;5057871;28;20021;-74
2023/09/13 03:03:50;;;;;;;40.60;26.17;;;18.20;99.90;;;;;;5057683;28;20064;-74
2023/09/13 03:06:15;;;;;;;34.78;23.80;;;18.20;99.90;;;;;;5057508;28;20029;-74
2023/09/13 03:08:42;;;;;;;37.25;23.30;;;18.30;99.90;;;;;;5057352;28;20060;-74
2023/09/13 03:11:12;;;;;;;34.60;23.42;;;18.30;99.90;;;;;;5057121;28;20025;-73
2023/09/13 03:13:38;;;;;;;44.42;26.33;;;18.30;99.90;;;;;;5056842;28;20495;-73
2023/09/13 03:16:15;;;;;;;42.13;25.73;;;18.30;99.90;;;;;;5057107;28;20025;-73
2023/09/13 03:18:41;;;;;;;40.53;26.33;;;18.40;99.90;;;;;;5057503;28;20486;-73
2023/09/13 03:21:09;;;;;;;39.50;27.00;;;18.30;99.90;;;;;;5057485;28;20025;-73
2023/09/13 03:23:39;;;;;;;37.83;24.92;;;18.30;99.90;;;;;;5056834;28;20032;-73
2023/09/13 03:26:21;;;;;;;39.70;26.60;;;18.30;99.90;;;;;;5057097;28;20032;-73
2023/09/13 03:28:50;;;;;;;43.50;28.05;;;18.40;99.90;;;;;;5056784;28;20040;-74
2023/09/13 03:31:17;;;;;;;42.00;27.85;;;18.30;99.90;;;;;;5057338;28;20106;-73
2023/09/13 03:33:43;;;;;;;45.65;29.92;;;18.30;99.90;;;;;;5057235;28;20060;-73
2023/09/13 03:36:10;;;;;;;30.98;21.95;;;18.30;99.90;;;;;;5056518;28;20025;-73
2023/09/13 03:38:38;;;;;;;25.50;17.70;;;18.40;99.90;;;;;;5056944;28;20025;-74
2023/09/13 03:41:04;;;;;;;26.15;17.50;;;18.30;99.90;;;;;;5056488;28;20025;-74
2023/09/13 03:43:30;;;;;;;21.55;15.18;;;18.30;99.90;;;;;;5057051;28;20021;-74
2023/09/13 03:45:56;;;;;;;16.40;12.05;;;18.20;99.90;;;;;;5056862;28;20029;-74
2023/09/13 03:48:22;;;;;;;14.93;11.73;;;18.20;99.90;;;;;;5056411;28;20390;-74
2023/09/13 03:50:49;;;;;;;15.75;11.52;;;18.10;99.90;;;;;;5056465;28;20033;-73
2023/09/13 03:53:15;;;;;;;16.77;10.70;;;18.10;99.90;;;;;;5056359;28;20021;-73
2023/09/13 03:55:41;;;;;;;13.13;10.48;;;18.10;99.90;;;;;;5056215;28;20032;-73
2023/09/13 03:58:07;;;;;;;14.10;11.10;;;18.10;99.90;;;;;;5056194;28;20058;-74
2023/09/13 04:00:35;;;;;;;16.83;10.93;;;18.10;99.90;;;;;;5055613;28;20488;-73
2023/09/13 04:03:01;;;;;;;13.63;11.30;;;18.00;99.90;;;;;;5056425;28;20029;-73
2023/09/13 04:05:27;;;;;;;14.82;10.38;;;18.00;99.90;;;;;;5056167;28;20025;-73
2023/09/13 04:07:53;;;;;;;12.75;9.57;;;18.00;99.90;;;;;;5056198;28;20032;-73
2023/09/13 04:10:18;;;;;;;13.52;10.27;;;18.00;99.90;;;;;;5056230;28;20489;-73
2023/09/13 04:12:44;;;;;;;11.02;8.93;;;18.00;99.90;;;;;;5055956;28;20068;-73
2023/09/13 04:15:09;;;;;;;12.98;9.55;;;18.10;99.90;;;;;;5055381;28;20056;-74
2023/09/13 04:17:35;;;;;;;11.60;9.30;;;18.10;99.90;;;;;;5056219;28;20363;-73
2023/09/13 04:20:01;;;;;;;14.73;10.60;;;18.10;99.90;;;;;;5056103;28;20082;-73
2023/09/13 04:22:26;;;;;;;12.13;9.05;;;18.10;99.90;;;;;;5056157;28;20368;-73
2023/09/13 04:24:52;;;;;;;13.52;9.25;;;18.10;99.90;;;;;;5056312;28;20060;-73
2023/09/13 04:27:21;;;;;;;11.82;9.27;;;18.00;99.90;;;;;;5056187;28;20029;-73
2023/09/13 04:29:47;;;;;;;14.48;10.35;;;18.00;99.90;;;;;;5055747;28;20056;-73
2023/09/13 04:32:13;;;;;;;15.57;11.35;;;18.00;99.90;;;;;;5055902;28;20036;-73
2023/09/13 04:34:38;;;;;;;15.05;10.05;;;18.00;99.90;;;;;;5055929;28;20033;-73
2023/09/13 04:37:06;;;;;;;15.30;11.25;;;18.00;99.90;;;;;;5055812;28;20459;-73
2023/09/13 04:39:32;;;;;;;14.63;10.93;;;18.10;99.90;;;;;;5056046;28;20032;-73
2023/09/13 04:41:58;;;;;;;16.63;11.73;;;18.10;99.90;;;;;;5055733;28;20053;-73
2023/09/13 04:44:24;;;;;;;15.30;11.00;;;18.10;99.90;;;;;;5055415;28;20021;-73
2023/09/13 04:46:51;;;;;;;15.45;11.45;;;18.10;99.90;;;;;;5055672;28;20127;-73
2023/09/13 04:49:17;;;;;;;19.73;11.60;;;18.20;99.90;;;;;;5055835;28;20498;-73
2023/09/13 04:51:42;;;;;;;16.77;10.63;;;18.10;99.90;;;;;;5055515;28;20093;-73
2023/09/13 04:54:08;;;;;;;15.38;9.63;;;18.10;99.90;;;;;;5055461;28;20382;-73
2023/09/13 04:56:33;;;;;;;15.45;9.70;;;18.10;99.90;;;;;;5055516;28;20036;-73
2023/09/13 04:58:59;;;;;;;15.88;9.73;;;18.10;99.90;;;;;;5055668;28;20047;-72
2023/09/13 05:01:25;;;;;;;18.73;9.65;;;18.20;99.90;;;;;;5055607;28;20487;-73
2023/09/13 05:03:52;;;;;;;13.90;9.27;;;18.10;99.90;;;;;;5055261;28;20108;-73
2023/09/13 05:06:18;;;;;;;13.68;9.15;;;18.10;99.90;;;;;;5055350;28;20099;-73
2023/09/13 05:08:44;;;;;;;11.65;8.45;;;18.00;99.90;;;;;;5054993;28;20112;-73
2023/09/13 05:11:09;;;;;;;9.57;7.72;;;18.00;99.90;;;;;;5055359;28;20035;-73
2023/09/13 05:13:38;;;;;;;8.73;6.97;;;18.00;99.90;;;;;;5054778;28;20053;-73
2023/09/13 05:16:04;;;;;;;11.00;8.05;;;18.00;99.90;;;;;;5055158;28;20535;-73
2023/09/13 05:18:29;;;;;;;12.38;8.23;;;18.00;99.90;;;;;;5055253;28;20057;-73
2023/09/13 05:20:55;;;;;;;12.95;8.68;;;17.90;99.90;;;;;;5054752;28;20036;-73
2023/09/13 05:23:21;;;;;;;13.13;9.00;;;17.90;99.90;;;;;;5055182;28;20100;-73
2023/09/13 05:25:48;;;;;;;12.55;8.80;;;17.90;99.90;;;;;;5054843;28;20550;-73
2023/09/13 05:28:15;;;;;;;13.05;9.52;;;18.00;99.90;;;;;;5054505;28;20497;-73
2023/09/13 05:30:42;;;;;;;10.85;8.20;;;17.90;99.90;;;;;;5055068;28;20079;-73
2023/09/13 05:33:08;;;;;;;11.30;8.95;;;17.90;99.90;;;;;;5054424;28;20060;-73
2023/09/13 05:35:33;;;;;;;13.05;9.32;;;17.90;99.90;;;;;;5054550;28;20075;-73
2023/09/13 05:37:59;;;;;;;12.27;8.60;;;17.90;99.90;;;;;;5054396;28;20375;-73
2023/09/13 05:40:29;;;;;;;12.55;8.60;;;17.90;99.90;;;;;;5053970;28;20025;-73
2023/09/13 05:42:55;;;;;;;19.00;13.00;;;17.90;99.90;;;;;;5054840;28;20029;-73
2023/09/13 05:45:23;;;;;;;13.35;8.98;;;18.00;99.90;;;;;;5054506;28;20021;-74
2023/09/13 05:47:49;;;;;;;13.38;8.93;;;18.00;99.90;;;;;;5054284;28;20033;-73
2023/09/13 05:50:15;;;;;;;12.23;9.02;;;18.10;99.90;;;;;;5053973;28;20119;-73
2023/09/13 05:52:41;;;;;;;12.27;9.32;;;18.30;99.90;;;;;;5054005;28;20096;-72
2023/09/13 05:55:07;;;;;;;11.90;8.38;;;18.40;99.90;;;;;;5054564;28;20048;-72
2023/09/13 05:57:33;;;;;;;14.23;9.05;;;18.40;99.90;;;;;;5053969;28;20112;-72
2023/09/13 05:59:59;;;;;;;14.00;8.60;;;18.30;99.90;;;;;;5053671;28;20067;-72
2023/09/13 06:02:24;;;;;;;18.35;8.85;;;18.50;99.90;;;;;;5051240;28;20071;-72
2023/09/13 06:04:50;;;;;;;13.70;8.82;;;18.50;99.90;;;;;;5049427;28;20132;-72
2023/09/13 06:07:16;;;;;;;19.38;9.60;;;18.50;99.90;;;;;;5052651;28;20051;-72
2023/09/13 06:09:41;;;;;;;15.27;8.82;;;18.50;99.90;;;;;;5051671;28;20094;-73
2023/09/13 06:12:07;;;;;;;13.35;9.85;;;18.50;99.90;;;;;;5054019;28;20037;-74
2023/09/13 06:14:33;;;;;;;19.40;10.57;;;18.60;99.90;;;;;;5052843;28;20053;-70
2023/09/13 06:16:58;;;;;;;16.77;11.00;;;18.50;99.90;;;;;;5052794;28;20117;-74
2023/09/13 06:19:24;;;;;;;16.02;10.00;;;18.60;99.90;;;;;;5051669;28;20036;-72
2023/09/13 06:21:51;;;;;;;17.23;10.48;;;18.50;99.90;;;;;;5051953;28;20025;-74
2023/09/13 06:24:16;;;;;;;15.07;10.50;;;18.60;99.90;;;;;;5052764;28;20028;-73
2023/09/13 06:26:42;;;;;;;16.33;10.25;;;18.60;99.90;;;;;;5050500;28;20029;-73
2023/09/13 06:29:09;;;;;;;19.05;11.82;;;18.60;99.90;;;;;;5052799;28;20090;-74
2023/09/13 06:31:35;;;;;;;16.25;11.93;;;18.60;99.90;;;;;;5051045;28;20032;-74
2023/09/13 06:34:03;;;;;;;19.38;13.13;;;18.60;99.90;;;;;;5051123;28;20033;-74
2023/09/13 06:36:29;;;;;;;17.85;12.38;;;18.70;99.90;;;;;;5051670;28;20359;-74
2023/09/13 06:38:55;;;;;;;20.92;13.00;;;18.70;99.90;;;;;;5052167;28;20087;-74
2023/09/13 06:41:20;;;;;;;21.48;13.77;;;18.60;99.90;;;;;;5052712;28;20025;-74
2023/09/13 06:43:46;;;;;;;17.98;13.13;;;19.00;99.90;;;;;;5052329;28;20502;-74
2023/09/13 06:46:12;;;;;;;17.13;12.95;;;19.00;99.90;;;;;;5051907;28;20060;-75
2023/09/13 06:48:38;;;;;;;16.90;12.77;;;18.90;99.90;;;;;;5051788;28;20079;-74
2023/09/13 06:51:03;;;;;;;18.70;11.95;;;19.00;99.90;;;;;;5051430;28;20074;-74
2023/09/13 06:53:30;;;;;;;16.00;11.57;;;19.30;99.90;;;;;;5051504;28;20102;-74
2023/09/13 06:55:56;;;;;;;17.23;12.20;;;19.20;99.90;;;;;;5052866;28;20069;-74
2023/09/13 06:58:22;;;;;;;17.90;12.88;;;19.10;99.90;;;;;;5053747;28;20566;-74
2023/09/13 07:00:48;;;;;;;18.98;12.23;;;19.30;99.90;;;;;;5050843;28;20107;-74
2023/09/13 07:03:13;;;;;;;17.73;12.45;;;19.60;99.90;;;;;;5052666;28;20056;-74
2023/09/13 07:05:39;;;;;;;22.48;13.88;;;19.60;99.90;;;;;;5051934;28;20021;-74
2023/09/13 07:08:05;;;;;;;22.30;14.48;;;19.50;99.90;;;;;;5051122;28;20029;-73
2023/09/13 07:10:31;;;;;;;21.25;15.75;;;19.50;99.90;;;;;;5052057;28;20104;-73
2023/09/13 07:12:57;;;;;;;25.65;17.45;;;19.30;99.90;;;;;;5052717;28;20025;-74
2023/09/13 07:15:25;;;;;;;25.70;17.05;;;19.30;99.90;;;;;;5049450;28;20110;-73
2023/09/13 07:17:51;;;;;;;28.05;20.77;;;19.40;99.90;;;;;;5050795;28;20471;-74
2023/09/13 07:20:17;;;;;;;34.65;24.33;;;19.30;99.90;;;;;;5051976;28;20036;-74
2023/09/13 07:22:43;;;;;;;37.63;24.52;;;19.20;99.90;;;;;;5050729;28;20356;-74
2023/09/13 07:25:08;;;;;;;46.85;29.33;;;19.20;99.90;;;;;;5049436;28;20036;-73
2023/09/13 07:27:34;;;;;;;47.58;33.03;;;19.20;99.90;;;;;;5052965;28;20140;-74
2023/09/13 07:30:00;;;;;;;47.03;32.20;;;19.20;99.90;;;;;;5051646;28;20032;-74
2023/09/13 07:32:26;;;;;;;43.35;32.78;;;19.20;99.90;;;;;;5046914;28;20409;-73
2023/09/13 07:34:52;;;;;;;51.60;33.90;;;19.30;99.90;;;;;;5040036;28;20582;-73
2023/09/13 07:37:17;;;;;;;53.22;36.67;;;19.30;99.90;;;;;;5048141;28;20033;-74
2023/09/13 07:39:43;;;;;;;51.08;35.80;;;19.20;99.90;;;;;;5053730;28;20021;-74
2023/09/13 07:42:11;;;;;;;53.53;35.90;;;19.20;99.90;;;;;;5054489;28;20040;-74
2023/09/13 07:44:36;;;;;;;56.28;37.17;;;19.30;99.90;;;;;;5054577;28;20025;-75
2023/09/13 07:47:02;;;;;;;58.30;38.05;;;19.40;99.90;;;;;;5052735;28;20500;-74
2023/09/13 07:49:27;;;;;;;58.45;38.80;;;19.40;99.90;;;;;;5054180;28;20376;-73
2023/09/13 07:51:53;;;;;;;58.67;39.25;;;19.40;99.90;;;;;;5053800;28;20036;-74
2023/09/13 07:54:19;;;;;;;62.55;39.55;;;19.50;99.90;;;;;;5052364;28;20033;-72
2023/09/13 07:56:44;;;;;;;59.60;40.05;;;19.50;99.90;;;;;;5051440;28;20036;-74
2023/09/13 07:59:14;;;;;;;63.45;41.75;;;19.60;99.90;;;;;;5049084;28;20419;-73
2023/09/13 08:01:40;;;;;;;62.17;39.45;;;19.60;99.90;;;;;;5050757;28;20025;-72
2023/09/13 08:04:06;;;;;;;56.55;38.47;;;20.00;99.90;;;;;;5052373;28;20047;-75
2023/09/13 08:06:32;;;;;;;51.17;37.15;;;20.30;99.90;;;;;;5053622;28;20474;-74
2023/09/13 08:08:58;;;;;;;57.30;35.67;;;20.40;99.90;;;;;;5055248;28;20033;-77
2023/09/13 08:11:24;;;;;;;54.25;36.20;;;;;;;;;;5053560;28;20471;-72
2023/09/13 08:13:50;;;;;;;54.13;36.85;;;20.20;99.90;;;;;;5048373;28;20454;-73
2023/09/13 08:16:16;;;;;;;57.50;37.47;;;20.10;99.90;;;;;;5046068;28;20033;-73
2023/09/13 08:18:41;;;;;;;53.58;37.60;;;20.10;99.90;;;;;;5053672;28;20035;-73
2023/09/13 08:21:07;;;;;;;58.58;39.38;;;20.00;99.90;;;;;;5052104;28;20033;-73
2023/09/13 08:23:35;;;;;;;62.92;40.97;;;19.90;99.90;;;;;;5052984;28;20490;-73
2023/09/13 08:26:00;;;;;;;67.50;43.47;;;19.70;99.90;;;;;;5051599;28;20509;-73
2023/09/13 08:28:26;;;;;;;71.60;45.30;;;19.60;99.90;;;;;;5053006;28;20029;-73
2023/09/13 08:30:52;;;;;;;65.70;43.42;;;19.50;99.90;;;;;;5048849;28;20048;-73
2023/09/13 08:33:18;;;;;;;66.25;43.63;;;19.50;99.90;;;;;;5052643;28;20040;-73
2023/09/13 08:35:43;;;;;;;66.22;43.95;;;19.60;99.90;;;;;;5051854;28;20054;-74
2023/09/13 08:38:09;;;;;;;63.65;42.22;;;19.70;99.90;;;;;;5053547;28;20024;-73
2023/09/13 08:40:44;;;;;;;65.70;43.65;;;19.90;99.90;;;;;;5051507;28;20024;-73
2023/09/13 08:43:11;;;;;;;64.68;42.53;;;20.30;99.90;;;;;;5054253;28;20482;-73
2023/09/13 08:45:38;;;;;;;58.97;40.97;;;20.20;99.90;;;;;;5052560;28;20430;-73
2023/09/13 08:48:06;;;;;;;62.35;42.78;;;20.10;99.90;;;;;;5047408;28;20025;-75
2023/09/13 08:50:34;;;;;;;60.08;40.20;;;;;;;;;;5049526;28;20032;-73
2023/09/13 08:53:01;;;;;;;70.75;45.70;;;19.50;99.90;;;;;;5052071;28;20493;-73
2023/09/13 08:55:27;;;;;;;66.65;43.17;;;19.40;99.90;;;;;;5052343;28;20475;-74
2023/09/13 08:57:56;;;;;;;69.75;44.92;;;19.40;99.90;;;;;;5052695;28;20083;-75
2023/09/13 09:00:23;;;;;;;70.55;45.08;;;19.40;99.90;;;;;;5049584;28;20025;-72
2023/09/13 09:02:51;;;;;;;62.05;42.75;;;19.50;99.90;;;;;;5049906;28;20025;-73
2023/09/13 09:05:17;;;;;;;65.88;44.15;;;19.80;99.90;;;;;;5049918;28;20063;-73
2023/09/13 09:07:45;;;;;;;59.47;41.08;;;20.20;99.90;;;;;;5050705;28;20093;-73
2023/09/13 09:10:12;;;;;;;56.45;39.55;;;20.20;99.90;;;;;;5052160;28;20161;-72
2023/09/13 09:12:44;;;;;;;59.88;38.30;;;20.20;99.90;;;;;;5047796;28;20059;-74
2023/09/13 09:15:12;;;;;;;64.80;40.05;;;20.40;99.90;;;;;;5052636;28;20052;-74
2023/09/13 09:17:39;;;;;;;60.97;39.50;;;20.50;99.90;;;;;;5050122;28;20082;-74
2023/09/13 09:20:05;;;;;;;58.25;37.65;;;20.70;99.90;;;;;;5047010;28;20033;-72
2023/09/13 09:22:32;;;;;;;55.67;36.45;;;20.90;99.90;;;;;;5051250;28;20081;-72
2023/09/13 09:24:59;;;;;;;47.10;34.10;;;21.30;99.90;;;;;;5049984;28;20383;-72
2023/09/13 09:27:28;;;;;;;48.28;33.40;;;21.80;99.90;;;;;;5049875;28;20515;-71
2023/09/13 09:30:04;;;;;;;42.42;31.98;;;22.20;99.90;;;;;;5041968;28;20041;-73
2023/09/13 09:32:30;;;;;;;38.30;28.88;;;22.60;43.60;;;;;;5050853;28;20037;-72
2023/09/13 09:34:58;;;;;;;42.40;30.58;;;23.20;45.00;;;;;;5049699;28;20029;-73
2023/09/13 09:37:32;;;;;;;37.65;28.00;;;23.00;28.70;;;;;;5048065;28;20380;-74
2023/09/13 09:39:58;;;;;;;36.15;26.45;;;23.20;28.40;;;;;;5051057;28;20043;-73
2023/09/13 09:42:25;;;;;;;35.00;26.63;;;22.80;22.80;;;;;;5051781;28;20021;-74
2023/09/13 09:44:51;;;;;;;37.45;28.50;;;22.40;31.10;;;;;;5048777;28;20108;-73
2023/09/13 09:47:18;;;;;;;38.95;28.98;;;22.10;82.30;;;;;;5049376;28;20116;-72
2023/09/13 09:49:49;;;;;;;37.80;27.60;;;22.30;79.50;;;;;;5049791;28;20402;-72
2023/09/13 09:52:15;;;;;;;33.90;27.08;;;22.80;45.00;;;;;;5051813;28;20112;-72
2023/09/13 09:54:47;;;;;;;36.35;26.30;;;22.90;1.20;;;;;;5051083;28;20035;-74
2023/09/13 09:57:22;;;;;;;39.38;29.10;;;22.20;66.20;;;;;;5050279;28;20116;-73
2023/09/13 09:59:48;;;;;;;40.05;29.27;;;21.90;64.20;;;;;;5051094;28;20181;-74
2023/09/13 10:02:13;;;;;;;41.85;28.63;;;21.40;94.00;;;;;;5050347;28;20025;-74
2023/09/13 10:04:49;;;;;;;34.95;25.42;;;21.70;99.90;;;;;;5052497;28;20028;-74
2023/09/13 10:07:14;;;;;;;33.45;24.73;;;22.60;34.00;;;;;;5040249;28;20115;-71
2023/09/13 10:09:41;;;;;;;30.33;24.15;;;22.90;1.00;;;;;;5050122;28;20057;-77
2023/09/13 10:12:09;;;;;;;30.27;22.63;;;22.80;10.30;;;;;;5047032;28;20033;-75
2023/09/13 10:14:35;;;;;;;30.90;22.35;;;22.60;1.00;;;;;;5052661;28;20044;-74
2023/09/13 10:17:04;;;;;;;27.88;21.15;;;22.60;14.50;;;;;;5052155;28;20414;-74
2023/09/13 10:19:31;;;;;;;14.68;9.60;;;22.50;46.00;;;;;;5051226;28;20689;-74
2023/09/13 10:21:57;;;;;;;6.22;4.63;;;21.40;1.00;;;;;;5047557;28;20147;-75
2023/09/13 10:24:25;;;;;;;3.92;2.90;;;20.50;57.30;;;;;;5051853;28;20031;-75
2023/09/13 10:26:53;;;;;;;4.05;2.80;;;19.40;82.00;;;;;;5050571;28;20431;-76
2023/09/13 10:29:42;;;;;;;4.03;2.58;;;19.10;99.90;;;;;;5051158;28;20032;-75
2023/09/13 10:32:11;;;;;;;4.43;2.40;;;18.80;99.90;;;;;;5050442;28;20395;-76
2023/09/13 10:34:49;;;;;;;4.05;2.58;;;18.70;99.90;;;;;;5053616;28;20074;-76
2023/09/13 10:37:42;;;;;;;4.10;2.58;;;18.60;99.90;;;;;;5046418;28;20026;-74
2023/09/13 10:40:17;;;;;;;5.07;2.50;;;18.50;99.90;;;;;;5042632;28;20534;-77
2023/09/13 10:42:44;;;;;;;5.40;2.35;;;18.00;99.90;;;;;;5052211;28;20057;-75
2023/09/13 10:45:14;;;;;;;4.88;2.75;;;17.90;99.90;;;;;;5053370;28;20025;-75
2023/09/13 10:47:40;;;;;;;8.85;3.05;;;18.00;99.90;;;;;;5051775;28;20099;-75
2023/09/13 10:50:07;;;;;;;5.63;2.97;;;18.10;99.90;;;;;;5052661;28;20544;-71
2023/09/13 10:52:35;;;;;;;5.28;3.30;;;18.20;99.90;;;;;;5050636;28;20029;-76
2023/09/13 10:55:05;;;;;;;7.65;3.53;;;18.20;99.90;;;;;;5049939;28;20033;-76
2023/09/13 10:57:32;;;;;;;7.13;3.83;;;18.40;99.90;;;;;;5050016;28;20086;-75
2023/09/13 10:59:59;;;;;;;10.40;4.10;;;17.50;99.90;;;;;;5052198;28;20025;-76
2023/09/13 11:02:25;;;;;;;7.22;3.88;;;18.20;99.90;;;;;;5053366;28;20033;-77
2023/09/13 11:04:51;;;;;;;6.15;3.72;;;18.30;90.40;;;;;;5052845;28;20025;-76
2023/09/13 11:07:17;;;;;;;6.43;3.72;;;18.40;68.60;;;;;;5053069;28;20032;-76
2023/09/13 11:09:43;;;;;;;7.95;3.38;;;18.50;47.70;;;;;;5051838;28;20036;-76
2023/09/13 11:12:12;;;;;;;5.72;3.45;;;18.50;28.10;;;;;;5056020;28;20033;-75
2023/09/13 11:14:42;;;;;;;9.98;3.53;;;18.50;30.40;;;;;;5056324;28;20041;-76
2023/09/13 11:17:33;;;;;;;11.20;3.63;;;18.60;38.00;;;;;;5045877;28;20033;-75
2023/09/13 11:25:52;;;;;;;7.55;3.35;;;19.40;1.00;;;;;;5108645;27;20457;-75
2023/09/13 11:31:17;;;;;;;7.35;3.17;;;19.60;1.00;;;;;;5106753;27;20335;-75
2023/09/13 11:33:56;;;;;;;6.05;2.85;;;19.70;1.00;;;;;;5103606;28;20031;-75
2023/09/13 11:36:24;;;;;;;5.03;3.03;;;19.30;1.00;;;;;;5098878;28;20477;-76
2023/09/13 11:38:52;;;;;;;6.90;3.70;;;19.30;1.00;;;;;;5091412;28;20382;-69
2023/09/13 11:41:18;;;;;;;9.57;3.10;;;19.80;1.00;;;;;;5089438;28;20028;-74
2023/09/13 11:43:43;;;;;;;7.13;3.00;;;19.80;1.00;;;;;;5090886;28;20028;-74
2023/09/13 11:46:10;;;;;;;6.72;2.88;;;19.70;1.00;;;;;;5090556;28;20379;-74
2023/09/13 11:48:40;;;;;;;6.70;3.03;;;20.10;1.00;;;;;;5103999;28;20029;-73
2023/09/13 11:51:14;;;;;;;5.15;2.78;;;20.00;1.00;;;;;;5088873;28;20032;-75
2023/09/13 11:53:41;;;;;;;5.25;2.53;;;20.20;1.00;;;;;;5090114;28;20052;-75
2023/09/13 11:56:08;;;;;;;7.45;3.03;;;20.40;1.00;;;;;;5093211;28;20032;-76
2023/09/13 11:58:36;;;;;;;4.80;2.53;;;20.80;99.90;;;;;;5093354;28;20024;-75
2023/09/13 12:01:05;;;;;;;4.93;2.40;;;20.80;1.00;;;;;;5070208;28;20517;-75
2023/09/13 12:03:39;;;;;;;5.63;2.58;;;20.80;99.90;;;;;;5088994;28;20540;-73
2023/09/13 12:06:05;;;;;;;5.68;2.58;;;20.60;99.90;;;;;;5080381;28;20039;-73
2023/09/13 12:08:34;;;;;;;6.93;2.70;;;20.40;99.90;;;;;;5077728;28;20474;-73
2023/09/13 12:11:03;;;;;;;5.05;2.67;;;20.40;1.00;;;;;;5086964;28;20028;-74
2023/09/13 12:13:52;;;;;;;7.13;2.80;;;20.50;99.90;;;;;;5088460;28;20024;-73
2023/09/13 12:16:18;;;;;;;9.63;2.67;;;20.40;99.90;;;;;;5088562;28;20059;-74
2023/09/13 12:18:44;;;;;;;6.13;2.65;;;19.90;1.00;;;;;;5092269;28;20451;-74
2023/09/13 12:21:12;;;;;;;8.90;3.08;;;19.70;1.00;;;;;;5089749;28;20103;-74
2023/09/13 12:23:40;;;;;;;7.30;2.50;;;20.10;1.00;;;;;;5090601;28;20038;-74
2023/09/13 12:26:10;;;;;;;9.15;2.50;;;20.30;99.90;;;;;;5089956;28;20060;-75
2023/09/13 12:28:38;;;;;;;5.70;2.40;;;20.90;99.90;;;;;;5075084;28;20029;-75
2023/09/13 12:31:06;;;;;;;5.20;2.47;;;20.80;99.90;;;;;;5088756;28;20062;-75
2023/09/13 12:33:34;;;;;;;6.80;2.70;;;20.50;99.90;;;;;;5090682;28;20035;-75
2023/09/13 12:36:02;;;;;;;6.20;2.55;;;20.10;99.90;;;;;;5073214;28;20433;-75
2023/09/13 12:38:48;;;;;;;10.02;2.88;;;19.70;1.00;;;;;;5088741;28;20039;-74
2023/09/13 12:41:18;;;;;;;7.78;2.90;;;19.60;99.90;;;;;;5083084;28;20051;-74
2023/09/13 12:43:47;;;;;;;5.35;2.70;;;19.80;99.90;;;;;;5076157;28;20031;-75